sensor_id;sensor_type;location;lat;lon;timestamp;P1;durP1;ratioP1;P2;durP2;ratioP2
52025;SDS011;38041;40.058;18.328;2022-08-14T00:00:41;10.65;;;9.65;;
52025;SDS011;38041;40.058;18.328;2022-08-14T00:03:19;10.38;;;9.13;;
52025;SDS011;38041;40.058;18.328;2022-08-14T00:05:47;10.82;;;9.73;;
52025;SDS011;38041;40.058;18.328;2022-08-14T00:08:15;11.80;;;9.60;;
52025;SDS011;38041;40.058;18.328;2022-08-14T00:10:43;10.15;;;8.13;;
52025;SDS011;38041;40.058;18.328;2022-08-14T00:13:11;10.38;;;8.43;;
52025;SDS011;38041;40.058;18.328;2022-08-14T00:15:40;14.27;;;9.57;;
52025;SDS011;38041;40.058;18.328;2022-08-14T00:18:08;9.13;;;8.02;;
52025;SDS011;38041;40.058;18.328;2022-08-14T00:20:37;12.55;;;8.98;;
52025;SDS011;38041;40.058;18.328;2022-08-14T00:23:06;10.45;;;9.45;;
52025;SDS011;38041;40.058;18.328;2022-08-14T00:25:34;12.93;;;9.13;;
52025;SDS011;38041;40.058;18.328;2022-08-14T00:28:03;11.05;;;8.40;;
52025;SDS011;38041;40.058;18.328;2022-08-14T00:30:31;9.88;;;8.02;;
52025;SDS011;38041;40.058;18.328;2022-08-14T00:32:59;8.82;;;8.02;;
52025;SDS011;38041;40.058;18.328;2022-08-14T00:35:27;9.63;;;8.40;;
52025;SDS011;38041;40.058;18.328;2022-08-14T00:37:55;10.80;;;7.22;;
52025;SDS011;38041;40.058;18.328;2022-08-14T00:40:23;12.05;;;8.27;;
52025;SDS011;38041;40.058;18.328;2022-08-14T00:42:50;7.55;;;6.80;;
52025;SDS011;38041;40.058;18.328;2022-08-14T00:45:19;8.57;;;7.15;;
52025;SDS011;38041;40.058;18.328;2022-08-14T00:47:47;7.32;;;5.55;;
52025;SDS011;38041;40.058;18.328;2022-08-14T00:50:16;9.63;;;6.18;;
52025;SDS011;38041;40.058;18.328;2022-08-14T00:52:45;6.72;;;5.90;;
52025;SDS011;38041;40.058;18.328;2022-08-14T00:55:13;6.90;;;5.45;;
52025;SDS011;38041;40.058;18.328;2022-08-14T00:57:41;6.88;;;5.25;;
52025;SDS011;38041;40.058;18.328;2022-08-14T01:00:11;10.32;;;5.78;;
52025;SDS011;38041;40.058;18.328;2022-08-14T01:02:40;7.28;;;5.38;;
52025;SDS011;38041;40.058;18.328;2022-08-14T01:05:10;9.45;;;5.13;;
52025;SDS011;38041;40.058;18.328;2022-08-14T01:07:52;9.15;;;4.97;;
52025;SDS011;38041;40.058;18.328;2022-08-14T01:10:24;6.35;;;3.83;;
52025;SDS011;38041;40.058;18.328;2022-08-14T01:13:13;6.80;;;4.70;;
52025;SDS011;38041;40.058;18.328;2022-08-14T01:15:42;6.38;;;3.90;;
52025;SDS011;38041;40.058;18.328;2022-08-14T01:18:11;7.32;;;3.78;;
52025;SDS011;38041;40.058;18.328;2022-08-14T01:20:57;3.47;;;2.83;;
52025;SDS011;38041;40.058;18.328;2022-08-14T01:26:09;4.13;;;2.17;;
52025;SDS011;38041;40.058;18.328;2022-08-14T01:28:38;3.30;;;2.53;;
52025;SDS011;38041;40.058;18.328;2022-08-14T01:31:07;5.53;;;2.63;;
52025;SDS011;38041;40.058;18.328;2022-08-14T01:33:35;3.42;;;2.25;;
52025;SDS011;38041;40.058;18.328;2022-08-14T01:36:06;3.28;;;2.50;;
52025;SDS011;38041;40.058;18.328;2022-08-14T01:38:35;2.67;;;1.80;;
52025;SDS011;38041;40.058;18.328;2022-08-14T01:41:05;5.07;;;2.53;;
52025;SDS011;38041;40.058;18.328;2022-08-14T01:43:41;3.30;;;1.98;;
52025;SDS011;38041;40.058;18.328;2022-08-14T01:46:09;4.32;;;1.77;;
52025;SDS011;38041;40.058;18.328;2022-08-14T01:48:38;2.38;;;1.90;;
52025;SDS011;38041;40.058;18.328;2022-08-14T01:51:14;4.38;;;1.83;;
52025;SDS011;38041;40.058;18.328;2022-08-14T01:53:43;3.70;;;1.67;;
52025;SDS011;38041;40.058;18.328;2022-08-14T01:56:14;7.28;;;1.60;;
52025;SDS011;38041;40.058;18.328;2022-08-14T01:58:44;4.07;;;1.95;;
52025;SDS011;38041;40.058;18.328;2022-08-14T02:01:18;7.03;;;1.65;;
52025;SDS011;38041;40.058;18.328;2022-08-14T02:03:46;4.43;;;1.95;;
52025;SDS011;38041;40.058;18.328;2022-08-14T02:06:13;3.28;;;1.35;;
52025;SDS011;38041;40.058;18.328;2022-08-14T02:08:41;3.47;;;1.77;;
52025;SDS011;38041;40.058;18.328;2022-08-14T02:11:09;6.72;;;1.77;;
52025;SDS011;38041;40.058;18.328;2022-08-14T02:13:49;2.28;;;1.30;;
52025;SDS011;38041;40.058;18.328;2022-08-14T02:16:17;4.40;;;0.85;;
52025;SDS011;38041;40.058;18.328;2022-08-14T02:18:45;2.95;;;1.20;;
52025;SDS011;38041;40.058;18.328;2022-08-14T02:21:14;2.85;;;1.30;;
52025;SDS011;38041;40.058;18.328;2022-08-14T02:23:45;3.30;;;0.95;;
52025;SDS011;38041;40.058;18.328;2022-08-14T02:26:14;3.97;;;1.25;;
52025;SDS011;38041;40.058;18.328;2022-08-14T02:28:42;3.13;;;1.10;;
52025;SDS011;38041;40.058;18.328;2022-08-14T02:31:12;4.50;;;1.40;;
52025;SDS011;38041;40.058;18.328;2022-08-14T02:33:41;6.38;;;1.58;;
52025;SDS011;38041;40.058;18.328;2022-08-14T02:36:09;3.50;;;1.70;;
52025;SDS011;38041;40.058;18.328;2022-08-14T02:38:37;3.88;;;1.35;;
52025;SDS011;38041;40.058;18.328;2022-08-14T02:41:10;3.42;;;1.42;;
52025;SDS011;38041;40.058;18.328;2022-08-14T02:43:39;4.50;;;1.92;;
52025;SDS011;38041;40.058;18.328;2022-08-14T02:46:07;2.58;;;1.10;;
52025;SDS011;38041;40.058;18.328;2022-08-14T02:48:39;2.45;;;1.38;;
52025;SDS011;38041;40.058;18.328;2022-08-14T02:51:08;4.40;;;1.30;;
52025;SDS011;38041;40.058;18.328;2022-08-14T02:53:38;3.80;;;1.65;;
52025;SDS011;38041;40.058;18.328;2022-08-14T02:56:06;4.45;;;2.28;;
52025;SDS011;38041;40.058;18.328;2022-08-14T02:58:35;2.15;;;0.95;;
52025;SDS011;38041;40.058;18.328;2022-08-14T03:01:05;2.28;;;1.40;;
52025;SDS011;38041;40.058;18.328;2022-08-14T03:03:33;7.93;;;1.38;;
52025;SDS011;38041;40.058;18.328;2022-08-14T03:06:03;4.05;;;1.20;;
52025;SDS011;38041;40.058;18.328;2022-08-14T03:08:31;2.05;;;1.13;;
52025;SDS011;38041;40.058;18.328;2022-08-14T03:10:59;2.63;;;1.63;;
52025;SDS011;38041;40.058;18.328;2022-08-14T03:13:28;2.35;;;1.20;;
52025;SDS011;38041;40.058;18.328;2022-08-14T03:16:02;5.47;;;1.63;;
52025;SDS011;38041;40.058;18.328;2022-08-14T03:18:30;2.05;;;1.30;;
52025;SDS011;38041;40.058;18.328;2022-08-14T03:20:58;3.35;;;1.13;;
52025;SDS011;38041;40.058;18.328;2022-08-14T03:23:26;2.58;;;1.55;;
52025;SDS011;38041;40.058;18.328;2022-08-14T03:26:01;8.07;;;1.60;;
52025;SDS011;38041;40.058;18.328;2022-08-14T03:28:29;2.20;;;1.20;;
52025;SDS011;38041;40.058;18.328;2022-08-14T03:30:57;2.88;;;1.10;;
52025;SDS011;38041;40.058;18.328;2022-08-14T03:33:25;4.68;;;1.70;;
52025;SDS011;38041;40.058;18.328;2022-08-14T03:35:53;4.95;;;1.10;;
52025;SDS011;38041;40.058;18.328;2022-08-14T03:38:21;3.72;;;1.20;;
52025;SDS011;38041;40.058;18.328;2022-08-14T03:40:48;5.68;;;2.58;;
52025;SDS011;38041;40.058;18.328;2022-08-14T03:43:16;4.55;;;1.80;;
52025;SDS011;38041;40.058;18.328;2022-08-14T03:45:44;1.90;;;1.10;;
52025;SDS011;38041;40.058;18.328;2022-08-14T03:48:14;3.17;;;1.25;;
52025;SDS011;38041;40.058;18.328;2022-08-14T03:50:45;2.58;;;1.25;;
52025;SDS011;38041;40.058;18.328;2022-08-14T03:53:14;5.68;;;1.70;;
52025;SDS011;38041;40.058;18.328;2022-08-14T03:55:42;3.95;;;1.90;;
52025;SDS011;38041;40.058;18.328;2022-08-14T03:58:09;2.67;;;1.75;;
52025;SDS011;38041;40.058;18.328;2022-08-14T04:00:38;1.92;;;1.23;;
52025;SDS011;38041;40.058;18.328;2022-08-14T04:03:07;6.47;;;2.05;;
52025;SDS011;38041;40.058;18.328;2022-08-14T04:05:35;4.00;;;1.23;;
52025;SDS011;38041;40.058;18.328;2022-08-14T04:08:06;2.78;;;1.27;;
52025;SDS011;38041;40.058;18.328;2022-08-14T04:10:34;2.92;;;1.60;;
52025;SDS011;38041;40.058;18.328;2022-08-14T04:13:04;3.05;;;1.27;;
52025;SDS011;38041;40.058;18.328;2022-08-14T04:15:32;4.47;;;1.67;;
52025;SDS011;38041;40.058;18.328;2022-08-14T04:18:04;2.85;;;1.30;;
52025;SDS011;38041;40.058;18.328;2022-08-14T04:20:34;4.78;;;1.85;;
52025;SDS011;38041;40.058;18.328;2022-08-14T04:23:02;4.75;;;1.60;;
52025;SDS011;38041;40.058;18.328;2022-08-14T04:25:32;4.10;;;1.88;;
52025;SDS011;38041;40.058;18.328;2022-08-14T04:28:03;2.28;;;1.58;;
52025;SDS011;38041;40.058;18.328;2022-08-14T04:30:35;5.47;;;1.30;;
52025;SDS011;38041;40.058;18.328;2022-08-14T04:33:06;5.50;;;2.30;;
52025;SDS011;38041;40.058;18.328;2022-08-14T04:35:41;3.67;;;1.13;;
52025;SDS011;38041;40.058;18.328;2022-08-14T04:38:09;6.53;;;1.88;;
52025;SDS011;38041;40.058;18.328;2022-08-14T04:40:56;2.92;;;1.10;;
52025;SDS011;38041;40.058;18.328;2022-08-14T04:43:42;2.70;;;1.45;;
52025;SDS011;38041;40.058;18.328;2022-08-14T04:46:11;5.13;;;1.55;;
52025;SDS011;38041;40.058;18.328;2022-08-14T04:48:39;2.38;;;1.23;;
52025;SDS011;38041;40.058;18.328;2022-08-14T04:51:09;7.78;;;1.75;;
52025;SDS011;38041;40.058;18.328;2022-08-14T04:53:38;3.35;;;1.23;;
52025;SDS011;38041;40.058;18.328;2022-08-14T04:56:13;3.67;;;1.45;;
52025;SDS011;38041;40.058;18.328;2022-08-14T04:58:41;2.97;;;1.40;;
52025;SDS011;38041;40.058;18.328;2022-08-14T05:01:09;4.40;;;1.42;;
52025;SDS011;38041;40.058;18.328;2022-08-14T05:03:38;6.20;;;1.20;;
52025;SDS011;38041;40.058;18.328;2022-08-14T05:06:07;3.00;;;1.33;;
52025;SDS011;38041;40.058;18.328;2022-08-14T05:08:35;4.45;;;1.48;;
52025;SDS011;38041;40.058;18.328;2022-08-14T05:11:04;5.40;;;1.70;;
52025;SDS011;38041;40.058;18.328;2022-08-14T05:13:33;3.90;;;1.60;;
52025;SDS011;38041;40.058;18.328;2022-08-14T05:16:07;4.22;;;1.80;;
52025;SDS011;38041;40.058;18.328;2022-08-14T05:18:38;3.63;;;1.48;;
52025;SDS011;38041;40.058;18.328;2022-08-14T05:21:07;4.88;;;0.98;;
52025;SDS011;38041;40.058;18.328;2022-08-14T05:23:37;2.80;;;0.90;;
52025;SDS011;38041;40.058;18.328;2022-08-14T05:26:06;1.65;;;1.02;;
52025;SDS011;38041;40.058;18.328;2022-08-14T05:28:44;9.40;;;1.23;;
52025;SDS011;38041;40.058;18.328;2022-08-14T05:31:13;7.50;;;0.82;;
52025;SDS011;38041;40.058;18.328;2022-08-14T05:33:43;4.90;;;1.05;;
52025;SDS011;38041;40.058;18.328;2022-08-14T05:36:11;5.03;;;0.90;;
52025;SDS011;38041;40.058;18.328;2022-08-14T05:38:40;3.25;;;1.15;;
52025;SDS011;38041;40.058;18.328;2022-08-14T05:41:17;6.18;;;1.27;;
52025;SDS011;38041;40.058;18.328;2022-08-14T05:46:14;4.50;;;1.73;;
52025;SDS011;38041;40.058;18.328;2022-08-14T05:48:47;4.68;;;1.55;;
52025;SDS011;38041;40.058;18.328;2022-08-14T05:51:15;7.10;;;3.83;;
52025;SDS011;38041;40.058;18.328;2022-08-14T05:53:43;4.13;;;2.33;;
52025;SDS011;38041;40.058;18.328;2022-08-14T05:56:11;6.72;;;1.92;;
52025;SDS011;38041;40.058;18.328;2022-08-14T05:58:39;3.08;;;1.25;;
52025;SDS011;38041;40.058;18.328;2022-08-14T06:01:07;3.05;;;1.67;;
52025;SDS011;38041;40.058;18.328;2022-08-14T06:03:35;5.38;;;3.28;;
52025;SDS011;38041;40.058;18.328;2022-08-14T06:06:03;5.18;;;2.20;;
52025;SDS011;38041;40.058;18.328;2022-08-14T06:08:31;5.95;;;3.72;;
52025;SDS011;38041;40.058;18.328;2022-08-14T06:11:00;11.82;;;7.85;;
52025;SDS011;38041;40.058;18.328;2022-08-14T06:13:32;8.27;;;6.00;;
52025;SDS011;38041;40.058;18.328;2022-08-14T06:16:00;4.68;;;2.78;;
52025;SDS011;38041;40.058;18.328;2022-08-14T06:18:28;8.60;;;6.53;;
52025;SDS011;38041;40.058;18.328;2022-08-14T06:20:56;8.15;;;4.40;;
52025;SDS011;38041;40.058;18.328;2022-08-14T06:23:24;5.53;;;2.70;;
52025;SDS011;38041;40.058;18.328;2022-08-14T06:25:51;6.93;;;4.38;;
52025;SDS011;38041;40.058;18.328;2022-08-14T06:28:21;6.18;;;1.85;;
52025;SDS011;38041;40.058;18.328;2022-08-14T06:30:49;4.72;;;4.18;;
52025;SDS011;38041;40.058;18.328;2022-08-14T06:33:17;16.13;;;10.82;;
52025;SDS011;38041;40.058;18.328;2022-08-14T06:35:46;14.98;;;10.48;;
52025;SDS011;38041;40.058;18.328;2022-08-14T06:38:17;15.70;;;10.38;;
52025;SDS011;38041;40.058;18.328;2022-08-14T06:40:46;9.05;;;7.28;;
52025;SDS011;38041;40.058;18.328;2022-08-14T06:43:14;9.40;;;6.53;;
52025;SDS011;38041;40.058;18.328;2022-08-14T06:45:43;11.07;;;6.03;;
52025;SDS011;38041;40.058;18.328;2022-08-14T06:48:15;10.65;;;6.50;;
52025;SDS011;38041;40.058;18.328;2022-08-14T06:50:44;7.78;;;2.85;;
52025;SDS011;38041;40.058;18.328;2022-08-14T06:53:12;29.90;;;22.42;;
52025;SDS011;38041;40.058;18.328;2022-08-14T06:55:42;26.88;;;14.48;;
52025;SDS011;38041;40.058;18.328;2022-08-14T06:58:10;6.32;;;3.05;;
52025;SDS011;38041;40.058;18.328;2022-08-14T07:12:16;20.55;;;12.40;;
52025;SDS011;38041;40.058;18.328;2022-08-14T07:14:44;8.77;;;4.97;;
52025;SDS011;38041;40.058;18.328;2022-08-14T07:17:12;12.88;;;8.68;;
52025;SDS011;38041;40.058;18.328;2022-08-14T07:19:40;15.50;;;11.38;;
52025;SDS011;38041;40.058;18.328;2022-08-14T07:22:07;10.60;;;5.72;;
52025;SDS011;38041;40.058;18.328;2022-08-14T07:24:35;10.20;;;6.40;;
52025;SDS011;38041;40.058;18.328;2022-08-14T07:27:03;5.65;;;3.95;;
52025;SDS011;38041;40.058;18.328;2022-08-14T07:29:31;22.25;;;14.50;;
52025;SDS011;38041;40.058;18.328;2022-08-14T07:31:59;10.25;;;8.48;;
52025;SDS011;38041;40.058;18.328;2022-08-14T07:34:26;12.07;;;6.30;;
52025;SDS011;38041;40.058;18.328;2022-08-14T07:36:54;11.77;;;5.20;;
52025;SDS011;38041;40.058;18.328;2022-08-14T07:39:22;22.10;;;16.17;;
52025;SDS011;38041;40.058;18.328;2022-08-14T07:41:49;21.42;;;14.82;;
52025;SDS011;38041;40.058;18.328;2022-08-14T07:44:17;45.28;;;32.38;;
52025;SDS011;38041;40.058;18.328;2022-08-14T07:46:46;23.50;;;14.70;;
52025;SDS011;38041;40.058;18.328;2022-08-14T07:49:14;21.33;;;16.67;;
52025;SDS011;38041;40.058;18.328;2022-08-14T07:51:42;18.88;;;9.13;;
52025;SDS011;38041;40.058;18.328;2022-08-14T07:54:10;7.40;;;4.63;;
52025;SDS011;38041;40.058;18.328;2022-08-14T07:56:40;15.50;;;10.10;;
52025;SDS011;38041;40.058;18.328;2022-08-14T07:59:08;29.83;;;23.45;;
52025;SDS011;38041;40.058;18.328;2022-08-14T08:01:35;18.60;;;14.48;;
52025;SDS011;38041;40.058;18.328;2022-08-14T08:04:04;11.68;;;8.02;;
52025;SDS011;38041;40.058;18.328;2022-08-14T08:06:32;20.02;;;16.25;;
52025;SDS011;38041;40.058;18.328;2022-08-14T08:09:01;14.43;;;10.68;;
52025;SDS011;38041;40.058;18.328;2022-08-14T08:11:32;17.17;;;14.80;;
52025;SDS011;38041;40.058;18.328;2022-08-14T08:14:02;13.38;;;5.25;;
52025;SDS011;38041;40.058;18.328;2022-08-14T08:16:33;16.38;;;14.55;;
52025;SDS011;38041;40.058;18.328;2022-08-14T08:19:02;8.02;;;5.13;;
52025;SDS011;38041;40.058;18.328;2022-08-14T08:21:31;9.95;;;5.35;;
52025;SDS011;38041;40.058;18.328;2022-08-14T08:24:00;11.70;;;6.43;;
52025;SDS011;38041;40.058;18.328;2022-08-14T08:26:28;8.90;;;7.07;;
52025;SDS011;38041;40.058;18.328;2022-08-14T08:28:58;7.68;;;6.63;;
52025;SDS011;38041;40.058;18.328;2022-08-14T08:31:26;16.63;;;10.88;;
52025;SDS011;38041;40.058;18.328;2022-08-14T08:33:55;3.75;;;2.17;;
52025;SDS011;38041;40.058;18.328;2022-08-14T08:36:23;7.68;;;6.50;;
52025;SDS011;38041;40.058;18.328;2022-08-14T08:38:51;9.18;;;6.78;;
52025;SDS011;38041;40.058;18.328;2022-08-14T08:41:26;21.05;;;16.50;;
52025;SDS011;38041;40.058;18.328;2022-08-14T08:44:04;10.15;;;8.02;;
52025;SDS011;38041;40.058;18.328;2022-08-14T08:46:32;2.72;;;1.70;;
52025;SDS011;38041;40.058;18.328;2022-08-14T08:49:00;7.63;;;3.45;;
52025;SDS011;38041;40.058;18.328;2022-08-14T08:51:31;6.10;;;3.65;;
52025;SDS011;38041;40.058;18.328;2022-08-14T08:54:03;5.25;;;1.98;;
52025;SDS011;38041;40.058;18.328;2022-08-14T08:59:24;16.40;;;13.80;;
52025;SDS011;38041;40.058;18.328;2022-08-14T09:01:53;6.07;;;4.70;;
52025;SDS011;38041;40.058;18.328;2022-08-14T09:04:27;9.82;;;8.32;;
52025;SDS011;38041;40.058;18.328;2022-08-14T09:06:55;12.18;;;10.02;;
52025;SDS011;38041;40.058;18.328;2022-08-14T09:09:25;3.67;;;2.35;;
52025;SDS011;38041;40.058;18.328;2022-08-14T09:11:54;14.18;;;7.93;;
52025;SDS011;38041;40.058;18.328;2022-08-14T09:14:22;5.38;;;4.32;;
52025;SDS011;38041;40.058;18.328;2022-08-14T09:16:50;10.32;;;7.10;;
52025;SDS011;38041;40.058;18.328;2022-08-14T09:19:18;12.00;;;9.23;;
52025;SDS011;38041;40.058;18.328;2022-08-14T09:21:47;3.92;;;3.15;;
52025;SDS011;38041;40.058;18.328;2022-08-14T09:24:14;8.60;;;7.20;;
52025;SDS011;38041;40.058;18.328;2022-08-14T09:26:43;18.20;;;8.38;;
52025;SDS011;38041;40.058;18.328;2022-08-14T09:29:11;11.02;;;9.95;;
52025;SDS011;38041;40.058;18.328;2022-08-14T09:31:41;2.55;;;1.38;;
52025;SDS011;38041;40.058;18.328;2022-08-14T09:34:13;6.85;;;5.97;;
52025;SDS011;38041;40.058;18.328;2022-08-14T09:42:05;7.57;;;4.40;;
52025;SDS011;38041;40.058;18.328;2022-08-14T09:44:44;10.65;;;8.18;;
52025;SDS011;38041;40.058;18.328;2022-08-14T09:47:14;16.05;;;12.38;;
52025;SDS011;38041;40.058;18.328;2022-08-14T09:49:42;6.55;;;5.78;;
52025;SDS011;38041;40.058;18.328;2022-08-14T09:54:39;15.93;;;11.25;;
52025;SDS011;38041;40.058;18.328;2022-08-14T09:57:09;13.45;;;8.88;;
52025;SDS011;38041;40.058;18.328;2022-08-14T09:59:40;5.18;;;4.25;;
52025;SDS011;38041;40.058;18.328;2022-08-14T10:05:00;3.70;;;1.48;;
52025;SDS011;38041;40.058;18.328;2022-08-14T10:07:35;3.42;;;2.15;;
52025;SDS011;38041;40.058;18.328;2022-08-14T10:10:03;7.00;;;2.72;;
52025;SDS011;38041;40.058;18.328;2022-08-14T10:12:41;15.57;;;9.27;;
52025;SDS011;38041;40.058;18.328;2022-08-14T10:15:19;11.40;;;9.75;;
52025;SDS011;38041;40.058;18.328;2022-08-14T10:17:48;14.60;;;8.95;;
52025;SDS011;38041;40.058;18.328;2022-08-14T10:20:16;7.47;;;4.18;;
52025;SDS011;38041;40.058;18.328;2022-08-14T10:22:47;9.55;;;5.85;;
52025;SDS011;38041;40.058;18.328;2022-08-14T10:25:15;5.70;;;4.80;;
52025;SDS011;38041;40.058;18.328;2022-08-14T10:27:55;9.82;;;8.88;;
52025;SDS011;38041;40.058;18.328;2022-08-14T10:30:23;4.68;;;2.53;;
52025;SDS011;38041;40.058;18.328;2022-08-14T10:33:00;11.18;;;9.23;;
52025;SDS011;38041;40.058;18.328;2022-08-14T10:35:37;5.68;;;3.53;;
52025;SDS011;38041;40.058;18.328;2022-08-14T10:38:05;2.50;;;2.22;;
52025;SDS011;38041;40.058;18.328;2022-08-14T10:40:33;6.80;;;3.70;;
52025;SDS011;38041;40.058;18.328;2022-08-14T10:43:02;12.93;;;10.88;;
52025;SDS011;38041;40.058;18.328;2022-08-14T10:45:32;3.67;;;1.55;;
52025;SDS011;38041;40.058;18.328;2022-08-14T10:48:00;2.55;;;1.23;;
52025;SDS011;38041;40.058;18.328;2022-08-14T10:50:31;5.78;;;2.33;;
52025;SDS011;38041;40.058;18.328;2022-08-14T10:53:00;2.45;;;1.20;;
52025;SDS011;38041;40.058;18.328;2022-08-14T10:55:34;5.13;;;1.52;;
52025;SDS011;38041;40.058;18.328;2022-08-14T10:58:06;5.05;;;0.90;;
52025;SDS011;38041;40.058;18.328;2022-08-14T11:00:38;3.70;;;0.93;;
52025;SDS011;38041;40.058;18.328;2022-08-14T11:03:07;1.27;;;0.68;;
52025;SDS011;38041;40.058;18.328;2022-08-14T11:08:07;4.10;;;2.25;;
52025;SDS011;38041;40.058;18.328;2022-08-14T11:13:06;2.35;;;0.90;;
52025;SDS011;38041;40.058;18.328;2022-08-14T11:15:35;2.60;;;1.23;;
52025;SDS011;38041;40.058;18.328;2022-08-14T11:18:02;1.17;;;0.75;;
52025;SDS011;38041;40.058;18.328;2022-08-14T11:20:30;4.00;;;0.88;;
52025;SDS011;38041;40.058;18.328;2022-08-14T11:22:59;3.47;;;1.20;;
52025;SDS011;38041;40.058;18.328;2022-08-14T11:25:28;1.50;;;0.82;;
52025;SDS011;38041;40.058;18.328;2022-08-14T11:27:58;2.10;;;0.55;;
52025;SDS011;38041;40.058;18.328;2022-08-14T11:30:27;4.28;;;0.75;;
52025;SDS011;38041;40.058;18.328;2022-08-14T11:32:55;5.78;;;0.73;;
52025;SDS011;38041;40.058;18.328;2022-08-14T11:35:25;2.08;;;0.45;;
52025;SDS011;38041;40.058;18.328;2022-08-14T11:37:54;4.45;;;1.17;;
52025;SDS011;38041;40.058;18.328;2022-08-14T11:40:23;3.33;;;2.20;;
52025;SDS011;38041;40.058;18.328;2022-08-14T11:42:51;7.63;;;4.75;;
52025;SDS011;38041;40.058;18.328;2022-08-14T11:45:24;5.25;;;1.23;;
52025;SDS011;38041;40.058;18.328;2022-08-14T11:47:54;3.42;;;1.20;;
52025;SDS011;38041;40.058;18.328;2022-08-14T11:50:23;2.75;;;1.23;;
52025;SDS011;38041;40.058;18.328;2022-08-14T11:52:51;3.92;;;2.85;;
52025;SDS011;38041;40.058;18.328;2022-08-14T11:55:25;6.10;;;1.80;;
52025;SDS011;38041;40.058;18.328;2022-08-14T11:57:59;5.10;;;3.40;;
52025;SDS011;38041;40.058;18.328;2022-08-14T12:00:28;2.72;;;2.40;;
52025;SDS011;38041;40.058;18.328;2022-08-14T12:02:57;3.78;;;3.25;;
52025;SDS011;38041;40.058;18.328;2022-08-14T12:05:32;1.80;;;1.23;;
52025;SDS011;38041;40.058;18.328;2022-08-14T12:08:00;1.73;;;1.00;;
52025;SDS011;38041;40.058;18.328;2022-08-14T12:10:31;2.80;;;1.73;;
52025;SDS011;38041;40.058;18.328;2022-08-14T12:13:13;3.53;;;1.83;;
52025;SDS011;38041;40.058;18.328;2022-08-14T12:15:42;2.13;;;1.60;;
52025;SDS011;38041;40.058;18.328;2022-08-14T12:18:10;2.17;;;1.23;;
52025;SDS011;38041;40.058;18.328;2022-08-14T12:20:39;1.70;;;0.98;;
52025;SDS011;38041;40.058;18.328;2022-08-14T12:23:19;3.08;;;1.50;;
52025;SDS011;38041;40.058;18.328;2022-08-14T12:25:48;2.17;;;1.05;;
52025;SDS011;38041;40.058;18.328;2022-08-14T12:28:15;4.78;;;3.35;;
52025;SDS011;38041;40.058;18.328;2022-08-14T12:30:44;4.47;;;2.45;;
52025;SDS011;38041;40.058;18.328;2022-08-14T12:33:23;3.05;;;2.80;;
52025;SDS011;38041;40.058;18.328;2022-08-14T12:35:52;3.42;;;2.63;;
52025;SDS011;38041;40.058;18.328;2022-08-14T12:38:31;3.60;;;0.40;;
52025;SDS011;38041;40.058;18.328;2022-08-14T12:41:00;2.35;;;2.05;;
52025;SDS011;38041;40.058;18.328;2022-08-14T12:43:28;3.83;;;2.53;;
52025;SDS011;38041;40.058;18.328;2022-08-14T12:45:56;5.75;;;4.70;;
52025;SDS011;38041;40.058;18.328;2022-08-14T12:48:24;2.63;;;2.05;;
52025;SDS011;38041;40.058;18.328;2022-08-14T12:50:54;2.13;;;1.08;;
52025;SDS011;38041;40.058;18.328;2022-08-14T12:53:32;1.60;;;0.93;;
52025;SDS011;38041;40.058;18.328;2022-08-14T12:56:00;4.68;;;1.90;;
52025;SDS011;38041;40.058;18.328;2022-08-14T12:58:28;3.78;;;2.03;;
52025;SDS011;38041;40.058;18.328;2022-08-14T13:00:57;19.75;;;8.98;;
52025;SDS011;38041;40.058;18.328;2022-08-14T13:03:40;3.45;;;1.77;;
52025;SDS011;38041;40.058;18.328;2022-08-14T13:06:08;3.95;;;1.52;;
52025;SDS011;38041;40.058;18.328;2022-08-14T13:08:36;4.45;;;1.52;;
52025;SDS011;38041;40.058;18.328;2022-08-14T13:11:04;6.00;;;4.30;;
52025;SDS011;38041;40.058;18.328;2022-08-14T13:13:32;4.30;;;2.55;;
52025;SDS011;38041;40.058;18.328;2022-08-14T13:16:01;2.20;;;2.00;;
52025;SDS011;38041;40.058;18.328;2022-08-14T13:18:31;4.22;;;3.08;;
52025;SDS011;38041;40.058;18.328;2022-08-14T13:20:59;6.05;;;1.55;;
52025;SDS011;38041;40.058;18.328;2022-08-14T13:23:33;1.30;;;1.05;;
52025;SDS011;38041;40.058;18.328;2022-08-14T13:26:02;2.33;;;0.50;;
52025;SDS011;38041;40.058;18.328;2022-08-14T13:28:30;3.45;;;2.15;;
52025;SDS011;38041;40.058;18.328;2022-08-14T13:31:01;4.40;;;1.45;;
52025;SDS011;38041;40.058;18.328;2022-08-14T13:33:30;4.43;;;1.42;;
52025;SDS011;38041;40.058;18.328;2022-08-14T13:35:59;1.88;;;0.80;;
52025;SDS011;38041;40.058;18.328;2022-08-14T13:38:28;2.15;;;0.52;;
52025;SDS011;38041;40.058;18.328;2022-08-14T13:40:57;1.45;;;1.10;;
52025;SDS011;38041;40.058;18.328;2022-08-14T13:43:25;2.17;;;0.80;;
52025;SDS011;38041;40.058;18.328;2022-08-14T13:45:52;3.80;;;1.05;;
52025;SDS011;38041;40.058;18.328;2022-08-14T13:48:21;1.98;;;0.60;;
52025;SDS011;38041;40.058;18.328;2022-08-14T13:50:54;1.90;;;0.80;;
52025;SDS011;38041;40.058;18.328;2022-08-14T13:53:22;1.92;;;0.55;;
52025;SDS011;38041;40.058;18.328;2022-08-14T13:55:51;1.92;;;0.50;;
52025;SDS011;38041;40.058;18.328;2022-08-14T13:58:20;1.83;;;0.93;;
52025;SDS011;38041;40.058;18.328;2022-08-14T14:00:51;0.88;;;0.50;;
52025;SDS011;38041;40.058;18.328;2022-08-14T14:03:20;2.58;;;0.77;;
52025;SDS011;38041;40.058;18.328;2022-08-14T14:05:51;0.98;;;0.57;;
52025;SDS011;38041;40.058;18.328;2022-08-14T14:08:21;2.22;;;0.88;;
52025;SDS011;38041;40.058;18.328;2022-08-14T14:10:49;2.85;;;2.65;;
52025;SDS011;38041;40.058;18.328;2022-08-14T14:13:19;2.47;;;1.40;;
52025;SDS011;38041;40.058;18.328;2022-08-14T14:15:47;8.63;;;4.78;;
52025;SDS011;38041;40.058;18.328;2022-08-14T14:18:15;3.83;;;3.50;;
52025;SDS011;38041;40.058;18.328;2022-08-14T14:20:43;8.35;;;2.25;;
52025;SDS011;38041;40.058;18.328;2022-08-14T14:23:12;5.32;;;4.82;;
52025;SDS011;38041;40.058;18.328;2022-08-14T14:25:41;1.95;;;0.90;;
52025;SDS011;38041;40.058;18.328;2022-08-14T14:28:09;38.08;;;4.60;;
52025;SDS011;38041;40.058;18.328;2022-08-14T14:30:39;4.07;;;2.65;;
52025;SDS011;38041;40.058;18.328;2022-08-14T14:33:11;9.73;;;6.15;;
52025;SDS011;38041;40.058;18.328;2022-08-14T14:35:54;40.53;;;6.20;;
52025;SDS011;38041;40.058;18.328;2022-08-14T14:38:22;2.13;;;1.42;;
52025;SDS011;38041;40.058;18.328;2022-08-14T14:40:51;2.53;;;2.33;;
52025;SDS011;38041;40.058;18.328;2022-08-14T14:43:20;3.38;;;3.08;;
52025;SDS011;38041;40.058;18.328;2022-08-14T14:45:50;5.38;;;4.05;;
52025;SDS011;38041;40.058;18.328;2022-08-14T14:48:21;1.42;;;0.80;;
52025;SDS011;38041;40.058;18.328;2022-08-14T14:50:49;7.18;;;1.42;;
52025;SDS011;38041;40.058;18.328;2022-08-14T14:53:19;2.78;;;0.90;;
52025;SDS011;38041;40.058;18.328;2022-08-14T14:55:47;1.33;;;0.90;;
52025;SDS011;38041;40.058;18.328;2022-08-14T14:58:14;0.70;;;0.40;;
52025;SDS011;38041;40.058;18.328;2022-08-14T15:00:44;3.20;;;0.30;;
52025;SDS011;38041;40.058;18.328;2022-08-14T15:03:11;1.55;;;0.70;;
52025;SDS011;38041;40.058;18.328;2022-08-14T15:05:39;2.30;;;0.50;;
52025;SDS011;38041;40.058;18.328;2022-08-14T15:08:07;2.15;;;0.50;;
52025;SDS011;38041;40.058;18.328;2022-08-14T15:10:35;10.15;;;3.55;;
52025;SDS011;38041;40.058;18.328;2022-08-14T15:13:04;4.78;;;1.95;;
52025;SDS011;38041;40.058;18.328;2022-08-14T15:15:32;2.60;;;1.48;;
52025;SDS011;38041;40.058;18.328;2022-08-14T15:18:00;16.45;;;1.35;;
52025;SDS011;38041;40.058;18.328;2022-08-14T15:20:27;1.88;;;1.15;;